sensor_id;sensor_type;location;lat;lon;timestamp;pressure;altitude;pressure_sealevel;temperature;humidity
22755;BME280;11544;42.020;23.094;2024-02-04T00:02:17;97797.03;;;1.52;100.00
22755;BME280;11544;42.020;23.094;2024-02-04T00:04:47;97791.22;;;1.72;100.00
22755;BME280;11544;42.020;23.094;2024-02-04T00:07:14;97799.31;;;1.21;100.00
22755;BME280;11544;42.020;23.094;2024-02-04T00:09:42;97799.34;;;1.27;100.00
22755;BME280;11544;42.020;23.094;2024-02-04T00:12:10;97790.03;;;1.36;100.00
22755;BME280;11544;42.020;23.094;2024-02-04T00:14:38;97798.13;;;0.93;100.00
22755;BME280;11544;42.020;23.094;2024-02-04T00:17:05;97795.69;;;1.04;100.00
22755;BME280;11544;42.020;23.094;2024-02-04T00:19:32;97807.53;;;0.93;100.00
22755;BME280;11544;42.020;23.094;2024-02-04T00:22:08;97796.22;;;0.77;100.00
22755;BME280;11544;42.020;23.094;2024-02-04T00:24:35;97795.72;;;1.09;100.00
22755;BME280;11544;42.020;23.094;2024-02-04T00:27:02;97804.38;;;1.17;100.00
22755;BME280;11544;42.020;23.094;2024-02-04T00:29:29;97792.09;;;0.91;100.00
22755;BME280;11544;42.020;23.094;2024-02-04T00:31:56;97796.47;;;0.98;100.00
22755;BME280;11544;42.020;23.094;2024-02-04T00:34:23;97790.50;;;0.99;100.00
22755;BME280;11544;42.020;23.094;2024-02-04T00:36:50;97794.94;;;1.16;100.00
22755;BME280;11544;42.020;23.094;2024-02-04T00:39:18;97796.19;;;0.74;100.00
22755;BME280;11544;42.020;23.094;2024-02-04T00:41:45;97798.28;;;1.09;100.00
22755;BME280;11544;42.020;23.094;2024-02-04T00:44:12;97808.41;;;0.93;100.00
22755;BME280;11544;42.020;23.094;2024-02-04T00:46:39;97794.38;;;0.67;100.00
22755;BME280;11544;42.020;23.094;2024-02-04T00:49:05;97809.06;;;0.80;100.00
22755;BME280;11544;42.020;23.094;2024-02-04T00:51:33;97806.47;;;0.77;100.00
22755;BME280;11544;42.020;23.094;2024-02-04T00:54:02;97807.72;;;1.07;100.00
22755;BME280;11544;42.020;23.094;2024-02-04T00:56:42;97797.44;;;1.08;100.00
22755;BME280;11544;42.020;23.094;2024-02-04T00:59:10;97800.50;;;0.76;100.00
22755;BME280;11544;42.020;23.094;2024-02-04T01:01:43;97808.84;;;0.61;100.00
22755;BME280;11544;42.020;23.094;2024-02-04T01:04:23;97806.63;;;0.89;100.00
22755;BME280;11544;42.020;23.094;2024-02-04T01:06:50;97800.66;;;0.90;100.00
22755;BME280;11544;42.020;23.094;2024-02-04T01:09:28;97806.69;;;0.92;100.00
22755;BME280;11544;42.020;23.094;2024-02-04T01:11:56;97807.03;;;0.54;100.00
22755;BME280;11544;42.020;23.094;2024-02-04T01:14:23;97804.75;;;0.74;100.00
22755;BME280;11544;42.020;23.094;2024-02-04T01:16:50;97803.75;;;0.65;100.00
22755;BME280;11544;42.020;23.094;2024-02-04T01:19:17;97803.25;;;0.93;100.00
22755;BME280;11544;42.020;23.094;2024-02-04T01:21:45;97791.19;;;0.86;100.00
22755;BME280;11544;42.020;23.094;2024-02-04T01:24:12;97792.38;;;1.16;100.00
22755;BME280;11544;42.020;23.094;2024-02-04T01:26:38;97786.34;;;1.12;100.00
22755;BME280;11544;42.020;23.094;2024-02-04T01:29:05;97785.22;;;0.89;100.00
22755;BME280;11544;42.020;23.094;2024-02-04T01:31:32;97791.41;;;1.04;100.00
22755;BME280;11544;42.020;23.094;2024-02-04T01:33:59;97796.63;;;1.12;100.00
22755;BME280;11544;42.020;23.094;2024-02-04T01:36:26;97790.75;;;1.24;100.00
22755;BME280;11544;42.020;23.094;2024-02-04T01:38:53;97792.78;;;1.54;100.00
22755;BME280;11544;42.020;23.094;2024-02-04T01:41:20;97791.78;;;1.40;100.00
22755;BME280;11544;42.020;23.094;2024-02-04T01:43:47;97781.91;;;0.99;100.00
22755;BME280;11544;42.020;23.094;2024-02-04T01:46:14;97785.19;;;0.86;100.00
22755;BME280;11544;42.020;23.094;2024-02-04T01:48:41;97774.56;;;1.28;100.00
22755;BME280;11544;42.020;23.094;2024-02-04T01:51:09;97768.53;;;1.27;100.00
22755;BME280;11544;42.020;23.094;2024-02-04T01:53:38;97772.78;;;1.24;100.00
22755;BME280;11544;42.020;23.094;2024-02-04T01:56:06;97769.72;;;0.79;100.00
22755;BME280;11544;42.020;23.094;2024-02-04T01:58:34;97762.09;;;0.87;100.00
22755;BME280;11544;42.020;23.094;2024-02-04T02:01:01;97765.56;;;1.76;100.00
22755;BME280;11544;42.020;23.094;2024-02-04T02:03:31;97764.59;;;1.62;100.00
22755;BME280;11544;42.020;23.094;2024-02-04T02:05:59;97764.28;;;1.31;100.00
22755;BME280;11544;42.020;23.094;2024-02-04T02:08:26;97767.13;;;1.59;100.00
22755;BME280;11544;42.020;23.094;2024-02-04T02:11:01;97762.19;;;1.86;100.00
22755;BME280;11544;42.020;23.094;2024-02-04T02:13:32;97767.22;;;1.68;100.00
22755;BME280;11544;42.020;23.094;2024-02-04T02:16:21;97762.41;;;2.14;100.00
22755;BME280;11544;42.020;23.094;2024-02-04T02:18:53;97751.63;;;1.51;100.00
22755;BME280;11544;42.020;23.094;2024-02-04T02:21:44;97760.81;;;2.30;100.00
22755;BME280;11544;42.020;23.094;2024-02-04T02:26:51;97761.91;;;1.50;100.00
22755;BME280;11544;42.020;23.094;2024-02-04T02:29:18;97759.13;;;1.26;100.00
22755;BME280;11544;42.020;23.094;2024-02-04T02:31:45;97761.59;;;1.17;100.00
22755;BME280;11544;42.020;23.094;2024-02-04T02:34:15;97754.88;;;1.30;100.00
22755;BME280;11544;42.020;23.094;2024-02-04T02:39:49;97749.78;;;1.36;100.00
22755;BME280;11544;42.020;23.094;2024-02-04T02:42:21;97741.88;;;1.15;100.00
22755;BME280;11544;42.020;23.094;2024-02-04T02:44:49;97748.72;;;1.16;100.00
22755;BME280;11544;42.020;23.094;2024-02-04T02:47:17;97750.81;;;1.54;100.00
22755;BME280;11544;42.020;23.094;2024-02-04T02:49:44;97750.75;;;1.47;100.00
22755;BME280;11544;42.020;23.094;2024-02-04T02:52:11;97757.31;;;1.19;100.00
22755;BME280;11544;42.020;23.094;2024-02-04T02:54:38;97759.22;;;1.39;100.00
22755;BME280;11544;42.020;23.094;2024-02-04T02:57:05;97748.97;;;1.40;100.00
22755;BME280;11544;42.020;23.094;2024-02-04T02:59:32;97754.22;;;1.53;100.00
22755;BME280;11544;42.020;23.094;2024-02-04T03:01:59;97757.19;;;1.07;100.00
22755;BME280;11544;42.020;23.094;2024-02-04T03:04:26;97751.28;;;1.14;100.00
22755;BME280;11544;42.020;23.094;2024-02-04T03:06:53;97761.16;;;1.63;100.00
22755;BME280;11544;42.020;23.094;2024-02-04T03:09:20;97746.94;;;1.09;100.00
22755;BME280;11544;42.020;23.094;2024-02-04T03:11:46;97753.13;;;1.26;100.00
22755;BME280;11544;42.020;23.094;2024-02-04T03:14:17;97762.53;;;1.27;100.00
22755;BME280;11544;42.020;23.094;2024-02-04T03:16:44;97767.13;;;1.60;100.00
22755;BME280;11544;42.020;23.094;2024-02-04T03:19:12;97769.59;;;1.48;100.00
22755;BME280;11544;42.020;23.094;2024-02-04T03:21:39;97761.38;;;1.90;100.00
22755;BME280;11544;42.020;23.094;2024-02-04T03:24:05;97767.78;;;1.38;100.00
22755;BME280;11544;42.020;23.094;2024-02-04T03:26:32;97757.28;;;2.17;100.00
22755;BME280;11544;42.020;23.094;2024-02-04T03:28:59;97758.47;;;1.47;100.00
22755;BME280;11544;42.020;23.094;2024-02-04T03:31:28;97760.34;;;1.70;100.00
22755;BME280;11544;42.020;23.094;2024-02-04T03:33:54;97756.38;;;2.09;100.00
22755;BME280;11544;42.020;23.094;2024-02-04T03:36:23;97756.28;;;1.98;100.00
22755;BME280;11544;42.020;23.094;2024-02-04T03:38:51;97757.78;;;1.68;100.00
22755;BME280;11544;42.020;23.094;2024-02-04T03:41:18;97741.81;;;2.11;100.00
22755;BME280;11544;42.020;23.094;2024-02-04T03:43:45;97749.84;;;2.68;100.00
22755;BME280;11544;42.020;23.094;2024-02-04T03:46:15;97756.16;;;1.81;100.00
22755;BME280;11544;42.020;23.094;2024-02-04T03:48:43;97750.28;;;1.92;100.00
22755;BME280;11544;42.020;23.094;2024-02-04T03:51:17;97729.81;;;2.08;100.00
22755;BME280;11544;42.020;23.094;2024-02-04T03:53:45;97733.25;;;2.12;100.00
22755;BME280;11544;42.020;23.094;2024-02-04T03:56:12;97723.25;;;1.36;100.00
22755;BME280;11544;42.020;23.094;2024-02-04T03:58:39;97708.41;;;2.14;100.00
22755;BME280;11544;42.020;23.094;2024-02-04T04:01:09;97709.94;;;1.89;100.00
22755;BME280;11544;42.020;23.094;2024-02-04T04:03:39;97716.94;;;2.07;100.00
22755;BME280;11544;42.020;23.094;2024-02-04T04:06:08;97713.69;;;2.39;100.00
22755;BME280;11544;42.020;23.094;2024-02-04T04:08:36;97707.69;;;2.43;100.00
22755;BME280;11544;42.020;23.094;2024-02-04T04:11:04;97709.94;;;1.84;100.00
22755;BME280;11544;42.020;23.094;2024-02-04T04:13:31;97710.78;;;1.85;100.00
22755;BME280;11544;42.020;23.094;2024-02-04T04:16:02;97717.81;;;2.12;100.00
22755;BME280;11544;42.020;23.094;2024-02-04T04:18:30;97724.88;;;2.47;100.00
22755;BME280;11544;42.020;23.094;2024-02-04T04:20:57;97725.66;;;2.33;100.00
22755;BME280;11544;42.020;23.094;2024-02-04T04:23:24;97722.00;;;1.92;100.00
22755;BME280;11544;42.020;23.094;2024-02-04T04:25:51;97706.63;;;2.07;100.00
22755;BME280;11544;42.020;23.094;2024-02-04T04:28:17;97704.22;;;2.35;100.00
22755;BME280;11544;42.020;23.094;2024-02-04T04:30:44;97709.91;;;1.80;100.00
22755;BME280;11544;42.020;23.094;2024-02-04T04:33:11;97700.50;;;1.83;100.00
22755;BME280;11544;42.020;23.094;2024-02-04T04:35:39;97691.00;;;1.76;100.00
22755;BME280;11544;42.020;23.094;2024-02-04T04:38:06;97682.47;;;1.77;100.00
22755;BME280;11544;42.020;23.094;2024-02-04T04:40:32;97678.09;;;1.65;100.00
22755;BME280;11544;42.020;23.094;2024-02-04T04:42:59;97682.19;;;1.43;100.00
22755;BME280;11544;42.020;23.094;2024-02-04T04:45:26;97693.19;;;1.25;100.00
22755;BME280;11544;42.020;23.094;2024-02-04T04:47:53;97703.81;;;1.68;100.00
22755;BME280;11544;42.020;23.094;2024-02-04T04:50:21;97708.19;;;1.77;100.00
22755;BME280;11544;42.020;23.094;2024-02-04T04:52:48;97692.63;;;1.65;100.00
22755;BME280;11544;42.020;23.094;2024-02-04T04:55:15;97692.97;;;1.02;100.00
22755;BME280;11544;42.020;23.094;2024-02-04T04:57:42;97696.72;;;1.41;100.00
22755;BME280;11544;42.020;23.094;2024-02-04T05:00:09;97706.88;;;1.23;100.00
22755;BME280;11544;42.020;23.094;2024-02-04T05:02:37;97686.00;;;0.91;100.00
22755;BME280;11544;42.020;23.094;2024-02-04T05:05:04;97695.44;;;0.93;100.00
22755;BME280;11544;42.020;23.094;2024-02-04T05:07:32;97710.88;;;0.95;100.00
22755;BME280;11544;42.020;23.094;2024-02-04T05:09:59;97702.28;;;0.94;100.00
22755;BME280;11544;42.020;23.094;2024-02-04T05:12:26;97700.16;;;1.37;100.00
22755;BME280;11544;42.020;23.094;2024-02-04T05:14:53;97715.06;;;0.88;100.00
22755;BME280;11544;42.020;23.094;2024-02-04T05:17:19;97709.44;;;1.23;100.00
22755;BME280;11544;42.020;23.094;2024-02-04T05:19:46;97712.28;;;0.70;100.00
22755;BME280;11544;42.020;23.094;2024-02-04T05:22:13;97707.66;;;1.20;100.00
22755;BME280;11544;42.020;23.094;2024-02-04T05:24:41;97710.09;;;1.05;100.00
22755;BME280;11544;42.020;23.094;2024-02-04T05:27:08;97714.47;;;1.14;100.00
22755;BME280;11544;42.020;23.094;2024-02-04T05:29:35;97721.34;;;1.18;100.00
22755;BME280;11544;42.020;23.094;2024-02-04T05:32:02;97728.44;;;1.40;100.00
22755;BME280;11544;42.020;23.094;2024-02-04T05:34:29;97714.84;;;1.54;100.00
22755;BME280;11544;42.020;23.094;2024-02-04T05:36:58;97736.59;;;1.01;100.00
22755;BME280;11544;42.020;23.094;2024-02-04T05:39:25;97727.88;;;0.87;100.00
22755;BME280;11544;42.020;23.094;2024-02-04T05:41:51;97724.78;;;1.20;100.00
22755;BME280;11544;42.020;23.094;2024-02-04T05:44:18;97717.16;;;1.26;100.00
22755;BME280;11544;42.020;23.094;2024-02-04T05:46:45;97718.75;;;6.25;100.00
22755;BME280;11544;42.020;23.094;2024-02-04T05:49:12;97725.56;;;7.06;100.00
22755;BME280;11544;42.020;23.094;2024-02-04T05:51:40;97704.25;;;6.86;100.00
22755;BME280;11544;42.020;23.094;2024-02-04T05:54:08;97720.88;;;3.46;100.00
22755;BME280;11544;42.020;23.094;2024-02-04T05:56:35;97729.91;;;2.22;100.00
22755;BME280;11544;42.020;23.094;2024-02-04T05:59:02;97736.31;;;1.62;100.00
22755;BME280;11544;42.020;23.094;2024-02-04T06:01:28;97738.88;;;1.62;100.00
22755;BME280;11544;42.020;23.094;2024-02-04T06:03:55;97731.28;;;1.73;100.00
22755;BME280;11544;42.020;23.094;2024-02-04T06:06:22;97734.59;;;1.61;100.00
22755;BME280;11544;42.020;23.094;2024-02-04T06:08:49;97731.94;;;1.53;100.00
22755;BME280;11544;42.020;23.094;2024-02-04T06:11:16;97733.75;;;1.62;100.00
22755;BME280;11544;42.020;23.094;2024-02-04T06:13:44;97732.50;;;1.20;100.00
22755;BME280;11544;42.020;23.094;2024-02-04T06:16:11;97743.59;;;1.17;100.00
22755;BME280;11544;42.020;23.094;2024-02-04T06:18:39;97742.03;;;1.32;100.00
22755;BME280;11544;42.020;23.094;2024-02-04T06:21:07;97739.31;;;1.18;100.00
22755;BME280;11544;42.020;23.094;2024-02-04T06:23:34;97733.13;;;1.92;100.00
22755;BME280;11544;42.020;23.094;2024-02-04T06:26:02;97737.31;;;1.78;100.00
22755;BME280;11544;42.020;23.094;2024-02-04T06:28:29;97728.72;;;1.79;100.00
22755;BME280;11544;42.020;23.094;2024-02-04T06:30:56;97749.25;;;1.74;100.00
22755;BME280;11544;42.020;23.094;2024-02-04T06:33:24;97740.03;;;2.02;100.00
22755;BME280;11544;42.020;23.094;2024-02-04T06:35:52;97749.41;;;1.93;100.00
22755;BME280;11544;42.020;23.094;2024-02-04T06:38:19;97750.88;;;1.63;100.00
22755;BME280;11544;42.020;23.094;2024-02-04T06:40:46;97751.84;;;1.74;100.00
22755;BME280;11544;42.020;23.094;2024-02-04T06:43:13;97751.94;;;1.85;100.00
22755;BME280;11544;42.020;23.094;2024-02-04T06:45:40;97762.19;;;1.80;100.00
22755;BME280;11544;42.020;23.094;2024-02-04T06:48:07;97759.69;;;1.93;100.00
22755;BME280;11544;42.020;23.094;2024-02-04T06:50:35;97751.16;;;2.00;100.00
22755;BME280;11544;42.020;23.094;2024-02-04T06:53:03;97750.63;;;2.50;100.00
22755;BME280;11544;42.020;23.094;2024-02-04T06:55:30;97752.31;;;2.45;100.00
22755;BME280;11544;42.020;23.094;2024-02-04T06:57:57;97760.19;;;2.83;100.00
22755;BME280;11544;42.020;23.094;2024-02-04T07:00:24;97762.72;;;2.74;100.00
22755;BME280;11544;42.020;23.094;2024-02-04T07:02:51;97763.47;;;2.47;100.00
22755;BME280;11544;42.020;23.094;2024-02-04T07:05:18;97765.44;;;3.06;100.00
22755;BME280;11544;42.020;23.094;2024-02-04T07:07:48;97762.59;;;2.42;100.00
22755;BME280;11544;42.020;23.094;2024-02-04T07:10:16;97771.31;;;2.73;100.00
22755;BME280;11544;42.020;23.094;2024-02-04T07:12:43;97773.03;;;2.72;100.00
22755;BME280;11544;42.020;23.094;2024-02-04T07:15:11;97770.38;;;2.56;100.00
22755;BME280;11544;42.020;23.094;2024-02-04T07:17:37;97769.63;;;2.78;100.00
22755;BME280;11544;42.020;23.094;2024-02-04T07:20:05;97777.38;;;2.86;100.00
22755;BME280;11544;42.020;23.094;2024-02-04T07:22:32;97768.00;;;2.99;100.00
22755;BME280;11544;42.020;23.094;2024-02-04T07:25:03;97765.44;;;3.14;100.00
22755;BME280;11544;42.020;23.094;2024-02-04T07:27:31;97767.81;;;2.56;100.00
22755;BME280;11544;42.020;23.094;2024-02-04T07:29:58;97769.75;;;3.07;100.00
22755;BME280;11544;42.020;23.094;2024-02-04T07:32:25;97752.56;;;3.06;100.00
22755;BME280;11544;42.020;23.094;2024-02-04T07:34:52;97759.53;;;3.63;100.00
22755;BME280;11544;42.020;23.094;2024-02-04T07:37:19;97747.50;;;4.12;100.00
22755;BME280;11544;42.020;23.094;2024-02-04T07:39:46;97757.81;;;3.55;100.00
22755;BME280;11544;42.020;23.094;2024-02-04T07:42:13;97741.44;;;3.18;100.00
22755;BME280;11544;42.020;23.094;2024-02-04T07:44:40;97744.06;;;3.63;100.00
22755;BME280;11544;42.020;23.094;2024-02-04T07:47:06;97738.91;;;3.92;100.00
22755;BME280;11544;42.020;23.094;2024-02-04T07:49:33;97735.47;;;3.94;100.00
22755;BME280;11544;42.020;23.094;2024-02-04T07:52:01;97750.94;;;3.64;100.00
22755;BME280;11544;42.020;23.094;2024-02-04T07:54:27;97742.34;;;3.72;100.00
22755;BME280;11544;42.020;23.094;2024-02-04T07:56:54;97743.22;;;3.67;100.00
22755;BME280;11544;42.020;23.094;2024-02-04T07:59:21;97736.34;;;3.79;100.00
22755;BME280;11544;42.020;23.094;2024-02-04T08:01:48;97738.06;;;3.60;100.00
22755;BME280;11544;42.020;23.094;2024-02-04T08:04:15;97746.66;;;3.84;100.00
22755;BME280;11544;42.020;23.094;2024-02-04T08:06:42;97736.22;;;4.56;100.00
22755;BME280;11544;42.020;23.094;2024-02-04T08:09:09;97745.66;;;4.60;100.00
22755;BME280;11544;42.020;23.094;2024-02-04T08:11:36;97746.66;;;4.02;100.00
22755;BME280;11544;42.020;23.094;2024-02-04T08:14:03;97755.09;;;4.72;100.00
22755;BME280;11544;42.020;23.094;2024-02-04T08:16:31;97733.69;;;4.39;100.00
22755;BME280;11544;42.020;23.094;2024-02-04T08:18:58;97715.31;;;5.13;100.00
22755;BME280;11544;42.020;23.094;2024-02-04T08:21:25;97717.72;;;5.39;100.00
22755;BME280;11544;42.020;23.094;2024-02-04T08:23:52;97713.38;;;5.43;100.00
22755;BME280;11544;42.020;23.094;2024-02-04T08:26:18;97710.28;;;6.10;98.10
22755;BME280;11544;42.020;23.094;2024-02-04T08:28:45;97708.63;;;6.03;94.55
22755;BME280;11544;42.020;23.094;2024-02-04T08:31:12;97714.22;;;6.45;94.99
22755;BME280;11544;42.020;23.094;2024-02-04T08:33:39;97703.56;;;5.86;92.71
22755;BME280;11544;42.020;23.094;2024-02-04T08:36:06;97701.34;;;6.39;91.67
22755;BME280;11544;42.020;23.094;2024-02-04T08:38:33;97703.22;;;6.23;92.28
22755;BME280;11544;42.020;23.094;2024-02-04T08:41:00;97708.03;;;5.66;96.25
22755;BME280;11544;42.020;23.094;2024-02-04T08:43:27;97701.91;;;7.32;89.59
22755;BME280;11544;42.020;23.094;2024-02-04T08:45:54;97694.50;;;7.62;83.67
22755;BME280;11544;42.020;23.094;2024-02-04T08:48:21;97702.97;;;8.24;96.32
22755;BME280;11544;42.020;23.094;2024-02-04T08:50:48;97711.44;;;7.27;86.80
22755;BME280;11544;42.020;23.094;2024-02-04T08:53:17;97704.03;;;7.63;82.13
22755;BME280;11544;42.020;23.094;2024-02-04T08:55:44;97714.47;;;6.96;85.96
22755;BME280;11544;42.020;23.094;2024-02-04T08:58:11;97709.41;;;6.87;87.14
22755;BME280;11544;42.020;23.094;2024-02-04T09:00:38;97708.22;;;8.21;84.10
22755;BME280;11544;42.020;23.094;2024-02-04T09:03:05;97704.16;;;8.05;77.87
22755;BME280;11544;42.020;23.094;2024-02-04T09:05:32;97712.41;;;7.21;81.29
22755;BME280;11544;42.020;23.094;2024-02-04T09:07:59;97706.84;;;7.48;82.07
22755;BME280;11544;42.020;23.094;2024-02-04T09:10:26;97702.63;;;6.77;84.40
22755;BME280;11544;42.020;23.094;2024-02-04T09:12:53;97708.13;;;7.19;82.75
22755;BME280;11544;42.020;23.094;2024-02-04T09:15:20;97704.22;;;8.03;80.62
22755;BME280;11544;42.020;23.094;2024-02-04T09:17:47;97699.03;;;8.52;76.62
22755;BME280;11544;42.020;23.094;2024-02-04T09:20:14;97671.78;;;8.71;74.40
22755;BME280;11544;42.020;23.094;2024-02-04T09:22:42;97684.97;;;8.14;74.25
22755;BME280;11544;42.020;23.094;2024-02-04T09:25:09;97676.41;;;8.57;75.20
22755;BME280;11544;42.020;23.094;2024-02-04T09:27:36;97687.41;;;8.69;73.02
22755;BME280;11544;42.020;23.094;2024-02-04T09:30:04;97680.75;;;8.56;75.30
22755;BME280;11544;42.020;23.094;2024-02-04T09:32:32;97680.56;;;8.64;74.75
22755;BME280;11544;42.020;23.094;2024-02-04T09:35:01;97686.75;;;8.60;75.78
22755;BME280;11544;42.020;23.094;2024-02-04T09:37:28;97686.28;;;9.22;69.79
22755;BME280;11544;42.020;23.094;2024-02-04T09:39:55;97682.78;;;8.39;73.17
22755;BME280;11544;42.020;23.094;2024-02-04T09:42:22;97680.41;;;9.14;71.99
22755;BME280;11544;42.020;23.094;2024-02-04T09:44:50;97677.03;;;9.47;68.60
22755;BME280;11544;42.020;23.094;2024-02-04T09:47:17;97667.88;;;9.31;67.31
22755;BME280;11544;42.020;23.094;2024-02-04T09:49:44;97662.91;;;10.25;64.79
22755;BME280;11544;42.020;23.094;2024-02-04T09:52:13;97640.72;;;9.05;69.81
22755;BME280;11544;42.020;23.094;2024-02-04T09:54:50;97635.03;;;9.61;69.59
22755;BME280;11544;42.020;23.094;2024-02-04T09:57:22;97635.66;;;10.05;68.43
22755;BME280;11544;42.020;23.094;2024-02-04T09:59:49;97629.25;;;9.84;67.82
22755;BME280;11544;42.020;23.094;2024-02-04T10:02:17;97629.09;;;10.56;65.46
22755;BME280;11544;42.020;23.094;2024-02-04T10:04:47;97622.53;;;10.08;67.37
22755;BME280;11544;42.020;23.094;2024-02-04T10:07:14;97617.72;;;10.88;63.03
22755;BME280;11544;42.020;23.094;2024-02-04T10:09:44;97621.78;;;10.67;62.52
22755;BME280;11544;42.020;23.094;2024-02-04T10:12:12;97626.97;;;10.98;60.92
22755;BME280;11544;42.020;23.094;2024-02-04T10:14:39;97609.22;;;11.10;61.56
22755;BME280;11544;42.020;23.094;2024-02-04T10:17:06;97612.03;;;11.32;63.07
22755;BME280;11544;42.020;23.094;2024-02-04T10:19:33;97601.06;;;12.00;57.77
22755;BME280;11544;42.020;23.094;2024-02-04T10:22:01;97603.78;;;11.44;62.37
22755;BME280;11544;42.020;23.094;2024-02-04T10:24:29;97600.34;;;11.43;61.22
22755;BME280;11544;42.020;23.094;2024-02-04T10:26:56;97605.31;;;11.76;59.70
22755;BME280;11544;42.020;23.094;2024-02-04T10:29:25;97602.03;;;11.44;60.27
22755;BME280;11544;42.020;23.094;2024-02-04T10:31:55;97594.44;;;11.10;62.52
22755;BME280;11544;42.020;23.094;2024-02-04T10:34:27;97590.41;;;11.80;61.88
22755;BME280;11544;42.020;23.094;2024-02-04T10:36:56;97582.00;;;12.22;60.43
22755;BME280;11544;42.020;23.094;2024-02-04T10:39:22;97579.75;;;12.60;56.70
22755;BME280;11544;42.020;23.094;2024-02-04T10:41:50;97566.84;;;12.55;58.51
22755;BME280;11544;42.020;23.094;2024-02-04T10:44:23;97564.50;;;12.71;57.90
22755;BME280;11544;42.020;23.094;2024-02-04T10:46:51;97558.88;;;12.80;57.95
22755;BME280;11544;42.020;23.094;2024-02-04T10:49:19;97566.34;;;13.77;55.24
22755;BME280;11544;42.020;23.094;2024-02-04T10:51:46;97553.66;;;13.24;56.02
22755;BME280;11544;42.020;23.094;2024-02-04T10:54:15;97554.03;;;13.80;53.89
22755;BME280;11544;42.020;23.094;2024-02-04T10:56:46;97554.41;;;13.70;54.73
22755;BME280;11544;42.020;23.094;2024-02-04T10:59:16;97550.88;;;13.92;53.04
22755;BME280;11544;42.020;23.094;2024-02-04T11:01:48;97539.88;;;13.63;55.24
22755;BME280;11544;42.020;23.094;2024-02-04T11:04:17;97528.91;;;14.34;53.79
22755;BME280;11544;42.020;23.094;2024-02-04T11:06:45;97533.22;;;14.35;53.68
22755;BME280;11544;42.020;23.094;2024-02-04T11:09:13;97519.75;;;14.43;55.16
22755;BME280;11544;42.020;23.094;2024-02-04T11:11:43;97518.84;;;14.44;54.89
22755;BME280;11544;42.020;23.094;2024-02-04T11:14:17;97514.28;;;14.47;54.92
22755;BME280;11544;42.020;23.094;2024-02-04T11:27:25;97522.16;;;13.89;55.88
22755;BME280;11544;42.020;23.094;2024-02-04T11:29:53;97525.69;;;13.88;56.15
22755;BME280;11544;42.020;23.094;2024-02-04T11:32:20;97515.66;;;14.37;55.95
22755;BME280;11544;42.020;23.094;2024-02-04T11:34:47;97498.09;;;14.58;55.17
22755;BME280;11544;42.020;23.094;2024-02-04T11:37:18;97494.25;;;14.84;54.76
22755;BME280;11544;42.020;23.094;2024-02-04T11:39:54;97494.09;;;14.68;53.49
22755;BME280;11544;42.020;23.094;2024-02-04T11:42:23;97488.16;;;14.84;52.97
22755;BME280;11544;42.020;23.094;2024-02-04T11:44:50;97479.50;;;14.44;53.35
22755;BME280;11544;42.020;23.094;2024-02-04T11:47:33;97481.84;;;14.69;53.23
22755;BME280;11544;42.020;23.094;2024-02-04T11:50:02;97487.78;;;15.09;52.00
22755;BME280;11544;42.020;23.094;2024-02-04T11:52:30;97481.25;;;14.43;52.97
22755;BME280;11544;42.020;23.094;2024-02-04T11:54:57;97479.06;;;14.53;53.41
22755;BME280;11544;42.020;23.094;2024-02-04T11:57:25;97510.19;;;14.42;53.81
22755;BME280;11544;42.020;23.094;2024-02-04T11:59:53;97502.78;;;14.12;54.33
22755;BME280;11544;42.020;23.094;2024-02-04T12:02:24;97480.13;;;14.11;54.57
22755;BME280;11544;42.020;23.094;2024-02-04T12:04:51;97497.53;;;13.93;54.73
22755;BME280;11544;42.020;23.094;2024-02-04T12:07:19;97489.75;;;13.91;56.09
22755;BME280;11544;42.020;23.094;2024-02-04T12:09:47;97479.31;;;13.90;56.09
22755;BME280;11544;42.020;23.094;2024-02-04T12:12:15;97485.13;;;13.77;56.37
22755;BME280;11544;42.020;23.094;2024-02-04T12:14:42;97478.09;;;13.78;57.08
22755;BME280;11544;42.020;23.094;2024-02-04T12:17:11;97470.22;;;13.78;56.49
22755;BME280;11544;42.020;23.094;2024-02-04T12:19:38;97481.41;;;13.82;57.17
22755;BME280;11544;42.020;23.094;2024-02-04T12:22:10;97490.41;;;13.76;58.00
22755;BME280;11544;42.020;23.094;2024-02-04T12:24:38;97485.91;;;13.80;58.84
22755;BME280;11544;42.020;23.094;2024-02-04T12:27:08;97490.56;;;13.73;57.96
22755;BME280;11544;42.020;23.094;2024-02-04T12:29:36;97482.81;;;13.70;58.81
22755;BME280;11544;42.020;23.094;2024-02-04T12:32:04;97478.69;;;13.64;58.42
22755;BME280;11544;42.020;23.094;2024-02-04T12:34:33;97470.38;;;13.54;59.43
22755;BME280;11544;42.020;23.094;2024-02-04T12:37:01;97469.34;;;13.59;59.69
22755;BME280;11544;42.020;23.094;2024-02-04T12:39:29;97461.16;;;13.46;59.96
22755;BME280;11544;42.020;23.094;2024-02-04T12:41:59;97451.44;;;13.68;59.05
22755;BME280;11544;42.020;23.094;2024-02-04T12:44:27;97460.19;;;13.88;57.53
22755;BME280;11544;42.020;23.094;2024-02-04T12:46:54;97452.38;;;13.86;57.89
22755;BME280;11544;42.020;23.094;2024-02-04T12:49:21;97431.44;;;14.24;56.44
22755;BME280;11544;42.020;23.094;2024-02-04T12:51:49;97430.72;;;13.83;57.09
22755;BME280;11544;42.020;23.094;2024-02-04T12:54:19;97438.41;;;14.06;56.86
22755;BME280;11544;42.020;23.094;2024-02-04T12:56:51;97446.84;;;13.73;59.29
22755;BME280;11544;42.020;23.094;2024-02-04T12:59:29;97426.91;;;13.90;57.99
22755;BME280;11544;42.020;23.094;2024-02-04T13:01:58;97424.16;;;13.93;58.01
22755;BME280;11544;42.020;23.094;2024-02-04T13:04:25;97423.72;;;13.83;57.90
22755;BME280;11544;42.020;23.094;2024-02-04T13:06:53;97435.22;;;13.60;58.31
22755;BME280;11544;42.020;23.094;2024-02-04T13:09:20;97440.38;;;13.62;58.45
22755;BME280;11544;42.020;23.094;2024-02-04T13:11:47;97437.66;;;13.84;57.39